Información del aeropuerto LEAS

Información de pista
Pista 11 Longitud 7218 ft Anchura 148 ft
Elevación 399 ft Umbral 0 ft Rumbo 109
Pista 29 Longitud 7218 ft Anchura 148 ft
Elevación 399 ft Umbral 0 ft Rumbo 289
Frecuencias del aeropuerto
Tipo APP Nombre APP Frecuencia 118.15 MHZ
Tipo GND Nombre GND Frecuencia 121.7 MHZ
Tipo TWR Nombre TWR Frecuencia 118.15 MHZ
Radioayudas del aeropuerto
Tipo NDB Nombre Asturias Frecuencia 325 KHZ
Tipo NDB Nombre Asturias Frecuencia 387 KHZ
Tipo VOR-DME Nombre Asturias Frecuencia 112400 KHZ
Información meteorológica del aeropuerto y NOTAM
ADDS - METARS form results

(2348 UTC 23 June 2021)
Data provider http://aviationweather.gov/metar/data/
 
METAR text: LEAS 232330Z VRB02KT 9999 FEW040 SCT055 12/11 Q1025 NOSIG
Conditions at: LEAS (ASTURIAS/AVILES , ES) observed 2330 UTC 23 June 2021
Temperature: 12.0°C (54°F)
Dewpoint: 11.0°C (52°F) [RH = 94%]
Pressure (altimeter): 30.27 inches Hg (1025.0 mb)
Winds: variable direction winds at 2 MPH (2 knots; 1.0 m/s)
Visibility: 6 or more miles (10+ km)
Ceiling: at least 12,000 feet AGL
Clouds: few clouds at 4000 feet AGL
scattered clouds at 5500 feet AGL
Weather: no significant weather observed at this time

METAR text: LEAS 232300Z VRB01KT 9999 FEW040 SCT055 12/11 Q1026 NOSIG
Conditions at: LEAS (ASTURIAS/AVILES , ES) observed 2300 UTC 23 June 2021
Temperature: 12.0°C (54°F)
Dewpoint: 11.0°C (52°F) [RH = 94%]
Pressure (altimeter): 30.30 inches Hg (1026.0 mb)
Winds: variable direction winds at 1 MPH (1 knots; 0.5 m/s)
Visibility: 6 or more miles (10+ km)
Ceiling: at least 12,000 feet AGL
Clouds: few clouds at 4000 feet AGL
scattered clouds at 5500 feet AGL
Weather: no significant weather observed at this time

Forecast for: LEAS (ASTURIAS/AVILES , ES)
Text: TAF LEAS 232000Z 2321/2421 VRB04KT 9999 SCT020 TX18/2414Z TN10/2405Z
Forecast period: 2100 UTC 23 June 2021 to 2100 UTC 24 June 2021
Forecast type: FROM: standard forecast or significant change
Winds: variable direction winds at 5 MPH (4 knots; 2.1 m/s)
Visibility: 6 or more miles (10+ km)
Ceiling: at least 12,000 feet AGL
Clouds: scattered clouds at 2000 feet AGL
Weather: no significant weather forecast for this period
Text: PROB30
Forecast period: 0300 to 0700 UTC 24 June 2021
Forecast type: TEMPORARY: The following changes expected for less than half the time period
Visibility: 1.86 miles (2.99 km)
Ceiling: 1000 feet AGL
Clouds: broken clouds at 1000 feet AGL
Weather: BR  (mist)
Text: TEMPO 2403/2407 3000 BR BKN010
Forecast period: 0900 to 2000 UTC 24 June 2021
Forecast type: TEMPORARY: The following changes expected for less than half the time period
Winds: from the NE (50 degrees) at 12 MPH (10 knots; 5.1 m/s)
Visibility: missing
Ceiling: unknown
Clouds: missing
Weather: no significant weather forecast for this period